sensor_id;sensor_type;location;lat;lon;timestamp;temperature;humidity
14140;DHT22;7150;53.514;9.988;2023-04-25T00:00:59;13.50;92.10
14140;DHT22;7150;53.514;9.988;2023-04-25T00:03:24;13.50;92.10
14140;DHT22;7150;53.514;9.988;2023-04-25T00:05:50;13.40;92.10
14140;DHT22;7150;53.514;9.988;2023-04-25T00:08:17;13.50;92.20
14140;DHT22;7150;53.514;9.988;2023-04-25T00:10:42;13.50;92.20
14140;DHT22;7150;53.514;9.988;2023-04-25T00:13:08;13.50;92.20
14140;DHT22;7150;53.514;9.988;2023-04-25T00:15:33;13.60;92.20
14140;DHT22;7150;53.514;9.988;2023-04-25T00:18:01;13.70;92.60
14140;DHT22;7150;53.514;9.988;2023-04-25T00:20:26;13.80;92.20
14140;DHT22;7150;53.514;9.988;2023-04-25T00:22:52;13.90;92.30
14140;DHT22;7150;53.514;9.988;2023-04-25T00:25:18;14.00;92.20
14140;DHT22;7150;53.514;9.988;2023-04-25T00:27:44;14.00;92.20
14140;DHT22;7150;53.514;9.988;2023-04-25T00:30:10;14.00;92.10
14140;DHT22;7150;53.514;9.988;2023-04-25T00:32:35;14.00;92.00
14140;DHT22;7150;53.514;9.988;2023-04-25T00:35:01;13.80;91.60
14140;DHT22;7150;53.514;9.988;2023-04-25T00:37:27;13.80;91.50
14140;DHT22;7150;53.514;9.988;2023-04-25T00:39:53;13.80;91.40
14140;DHT22;7150;53.514;9.988;2023-04-25T00:42:20;13.80;91.30
14140;DHT22;7150;53.514;9.988;2023-04-25T00:44:46;13.90;91.20
14140;DHT22;7150;53.514;9.988;2023-04-25T00:47:13;13.90;91.10
14140;DHT22;7150;53.514;9.988;2023-04-25T00:49:38;14.00;91.10
14140;DHT22;7150;53.514;9.988;2023-04-25T00:52:04;14.00;90.70
14140;DHT22;7150;53.514;9.988;2023-04-25T00:54:30;13.90;89.80
14140;DHT22;7150;53.514;9.988;2023-04-25T00:56:56;13.80;89.10
14140;DHT22;7150;53.514;9.988;2023-04-25T00:59:22;13.90;89.40
14140;DHT22;7150;53.514;9.988;2023-04-25T01:01:48;13.80;89.10
14140;DHT22;7150;53.514;9.988;2023-04-25T01:04:13;13.80;88.70
14140;DHT22;7150;53.514;9.988;2023-04-25T01:06:39;13.90;88.10
14140;DHT22;7150;53.514;9.988;2023-04-25T01:09:05;13.90;88.30
14140;DHT22;7150;53.514;9.988;2023-04-25T01:11:31;14.00;88.90
14140;DHT22;7150;53.514;9.988;2023-04-25T01:13:57;14.00;88.10
14140;DHT22;7150;53.514;9.988;2023-04-25T01:16:23;14.00;88.20
14140;DHT22;7150;53.514;9.988;2023-04-25T01:18:52;14.00;87.70
14140;DHT22;7150;53.514;9.988;2023-04-25T01:21:17;14.00;87.30
14140;DHT22;7150;53.514;9.988;2023-04-25T01:23:43;14.00;87.00
14140;DHT22;7150;53.514;9.988;2023-04-25T01:26:10;14.00;86.30
14140;DHT22;7150;53.514;9.988;2023-04-25T01:28:36;14.00;86.00
14140;DHT22;7150;53.514;9.988;2023-04-25T01:31:02;14.00;85.20
14140;DHT22;7150;53.514;9.988;2023-04-25T01:33:29;13.80;84.20
14140;DHT22;7150;53.514;9.988;2023-04-25T01:35:54;13.80;84.30
14140;DHT22;7150;53.514;9.988;2023-04-25T01:38:20;13.70;84.30
14140;DHT22;7150;53.514;9.988;2023-04-25T01:40:46;13.70;84.50
14140;DHT22;7150;53.514;9.988;2023-04-25T01:43:14;13.80;84.30
14140;DHT22;7150;53.514;9.988;2023-04-25T01:45:41;13.80;84.30
14140;DHT22;7150;53.514;9.988;2023-04-25T01:48:09;13.80;84.00
14140;DHT22;7150;53.514;9.988;2023-04-25T01:50:35;13.80;84.30
14140;DHT22;7150;53.514;9.988;2023-04-25T01:53:00;13.80;84.00
14140;DHT22;7150;53.514;9.988;2023-04-25T01:55:27;13.80;83.90
14140;DHT22;7150;53.514;9.988;2023-04-25T01:57:53;13.80;83.50
14140;DHT22;7150;53.514;9.988;2023-04-25T02:00:18;13.80;83.20
14140;DHT22;7150;53.514;9.988;2023-04-25T02:02:44;13.80;83.20
14140;DHT22;7150;53.514;9.988;2023-04-25T02:05:09;13.70;82.90
14140;DHT22;7150;53.514;9.988;2023-04-25T02:07:35;13.70;82.90
14140;DHT22;7150;53.514;9.988;2023-04-25T02:10:01;13.80;82.90
14140;DHT22;7150;53.514;9.988;2023-04-25T02:12:27;13.80;82.90
14140;DHT22;7150;53.514;9.988;2023-04-25T02:14:53;13.70;82.00
14140;DHT22;7150;53.514;9.988;2023-04-25T02:17:18;13.70;81.80
14140;DHT22;7150;53.514;9.988;2023-04-25T02:19:44;13.70;81.80
14140;DHT22;7150;53.514;9.988;2023-04-25T02:22:10;13.70;81.50
14140;DHT22;7150;53.514;9.988;2023-04-25T02:24:36;13.80;82.00
14140;DHT22;7150;53.514;9.988;2023-04-25T02:27:01;13.80;81.40
14140;DHT22;7150;53.514;9.988;2023-04-25T02:29:27;13.80;81.30
14140;DHT22;7150;53.514;9.988;2023-04-25T02:31:53;13.90;81.00
14140;DHT22;7150;53.514;9.988;2023-04-25T02:34:18;13.90;79.90
14140;DHT22;7150;53.514;9.988;2023-04-25T02:36:44;13.80;78.90
14140;DHT22;7150;53.514;9.988;2023-04-25T02:39:09;13.80;78.60
14140;DHT22;7150;53.514;9.988;2023-04-25T02:41:35;13.80;78.30
14140;DHT22;7150;53.514;9.988;2023-04-25T02:44:01;13.80;77.80
14140;DHT22;7150;53.514;9.988;2023-04-25T02:46:26;13.80;77.60
14140;DHT22;7150;53.514;9.988;2023-04-25T02:48:51;13.70;76.80
14140;DHT22;7150;53.514;9.988;2023-04-25T02:51:17;13.70;76.50
14140;DHT22;7150;53.514;9.988;2023-04-25T02:53:42;13.70;76.10
14140;DHT22;7150;53.514;9.988;2023-04-25T02:56:08;13.60;75.80
14140;DHT22;7150;53.514;9.988;2023-04-25T02:58:33;13.60;75.90
14140;DHT22;7150;53.514;9.988;2023-04-25T03:00:59;13.70;75.60
14140;DHT22;7150;53.514;9.988;2023-04-25T03:03:24;13.60;75.40
14140;DHT22;7150;53.514;9.988;2023-04-25T03:05:50;13.60;74.60
14140;DHT22;7150;53.514;9.988;2023-04-25T03:08:17;13.60;74.90
14140;DHT22;7150;53.514;9.988;2023-04-25T03:10:43;13.50;74.80
14140;DHT22;7150;53.514;9.988;2023-04-25T03:13:08;13.50;74.10
14140;DHT22;7150;53.514;9.988;2023-04-25T03:15:35;13.40;73.60
14140;DHT22;7150;53.514;9.988;2023-04-25T03:18:01;13.50;74.00
14140;DHT22;7150;53.514;9.988;2023-04-25T03:20:27;13.50;73.90
14140;DHT22;7150;53.514;9.988;2023-04-25T03:22:52;13.50;73.50
14140;DHT22;7150;53.514;9.988;2023-04-25T03:25:18;13.50;73.40
14140;DHT22;7150;53.514;9.988;2023-04-25T03:27:43;13.50;73.40
14140;DHT22;7150;53.514;9.988;2023-04-25T03:30:09;13.50;73.40
14140;DHT22;7150;53.514;9.988;2023-04-25T03:32:35;13.50;73.00
14140;DHT22;7150;53.514;9.988;2023-04-25T03:35:01;13.40;72.90
14140;DHT22;7150;53.514;9.988;2023-04-25T03:37:26;13.40;73.10
14140;DHT22;7150;53.514;9.988;2023-04-25T03:39:51;13.40;72.80
14140;DHT22;7150;53.514;9.988;2023-04-25T03:42:17;13.30;72.20
14140;DHT22;7150;53.514;9.988;2023-04-25T03:44:43;13.20;71.90
14140;DHT22;7150;53.514;9.988;2023-04-25T03:47:08;13.20;71.70
14140;DHT22;7150;53.514;9.988;2023-04-25T03:49:34;13.20;70.50
14140;DHT22;7150;53.514;9.988;2023-04-25T03:52:00;13.10;69.70
14140;DHT22;7150;53.514;9.988;2023-04-25T03:54:26;13.00;69.20
14140;DHT22;7150;53.514;9.988;2023-04-25T03:56:51;12.90;68.80
14140;DHT22;7150;53.514;9.988;2023-04-25T03:59:17;12.90;68.80
14140;DHT22;7150;53.514;9.988;2023-04-25T04:01:42;12.80;68.40
14140;DHT22;7150;53.514;9.988;2023-04-25T04:04:08;12.90;68.30
14140;DHT22;7150;53.514;9.988;2023-04-25T04:06:33;12.80;68.10
14140;DHT22;7150;53.514;9.988;2023-04-25T04:08:59;12.80;68.00
14140;DHT22;7150;53.514;9.988;2023-04-25T04:11:24;12.80;68.00
14140;DHT22;7150;53.514;9.988;2023-04-25T04:13:50;12.80;68.00
14140;DHT22;7150;53.514;9.988;2023-04-25T04:16:15;12.70;67.90
14140;DHT22;7150;53.514;9.988;2023-04-25T04:18:41;12.60;68.00
14140;DHT22;7150;53.514;9.988;2023-04-25T04:21:06;12.60;68.30
14140;DHT22;7150;53.514;9.988;2023-04-25T04:23:32;12.70;68.30
14140;DHT22;7150;53.514;9.988;2023-04-25T04:25:57;12.80;68.40
14140;DHT22;7150;53.514;9.988;2023-04-25T04:28:23;12.80;68.10
14140;DHT22;7150;53.514;9.988;2023-04-25T04:30:48;12.80;68.20
14140;DHT22;7150;53.514;9.988;2023-04-25T04:33:16;12.80;68.30
14140;DHT22;7150;53.514;9.988;2023-04-25T04:35:44;12.80;68.40
14140;DHT22;7150;53.514;9.988;2023-04-25T04:38:09;12.80;68.50
14140;DHT22;7150;53.514;9.988;2023-04-25T04:40:36;12.80;68.60
14140;DHT22;7150;53.514;9.988;2023-04-25T04:43:01;12.70;68.10
14140;DHT22;7150;53.514;9.988;2023-04-25T04:45:27;12.70;68.30
14140;DHT22;7150;53.514;9.988;2023-04-25T04:47:52;12.70;68.60
14140;DHT22;7150;53.514;9.988;2023-04-25T04:50:20;12.80;68.80
14140;DHT22;7150;53.514;9.988;2023-04-25T04:52:46;12.80;68.40
14140;DHT22;7150;53.514;9.988;2023-04-25T04:55:11;12.90;68.40
14140;DHT22;7150;53.514;9.988;2023-04-25T04:57:37;12.90;68.30
14140;DHT22;7150;53.514;9.988;2023-04-25T05:00:04;12.90;68.00
14140;DHT22;7150;53.514;9.988;2023-04-25T05:02:32;12.90;67.60
14140;DHT22;7150;53.514;9.988;2023-04-25T05:04:57;12.80;67.00
14140;DHT22;7150;53.514;9.988;2023-04-25T05:07:22;12.70;66.80
14140;DHT22;7150;53.514;9.988;2023-04-25T05:09:48;12.70;66.90
14140;DHT22;7150;53.514;9.988;2023-04-25T05:12:13;12.60;67.20
14140;DHT22;7150;53.514;9.988;2023-04-25T05:14:39;12.60;67.30
14140;DHT22;7150;53.514;9.988;2023-04-25T05:17:04;12.70;67.50
14140;DHT22;7150;53.514;9.988;2023-04-25T05:19:33;12.70;67.40
14140;DHT22;7150;53.514;9.988;2023-04-25T05:21:59;12.80;67.50
14140;DHT22;7150;53.514;9.988;2023-04-25T05:24:24;12.80;67.30
14140;DHT22;7150;53.514;9.988;2023-04-25T05:26:50;12.80;67.90
14140;DHT22;7150;53.514;9.988;2023-04-25T05:29:16;12.80;67.70
14140;DHT22;7150;53.514;9.988;2023-04-25T05:31:41;12.80;68.20
14140;DHT22;7150;53.514;9.988;2023-04-25T05:34:07;12.80;68.90
14140;DHT22;7150;53.514;9.988;2023-04-25T05:36:32;12.60;69.30
14140;DHT22;7150;53.514;9.988;2023-04-25T05:38:58;12.60;70.00
14140;DHT22;7150;53.514;9.988;2023-04-25T05:41:23;12.60;70.40
14140;DHT22;7150;53.514;9.988;2023-04-25T05:43:49;12.60;70.30
14140;DHT22;7150;53.514;9.988;2023-04-25T05:46:15;12.60;70.60
14140;DHT22;7150;53.514;9.988;2023-04-25T05:48:42;12.70;70.80
14140;DHT22;7150;53.514;9.988;2023-04-25T05:51:08;12.60;71.20
14140;DHT22;7150;53.514;9.988;2023-04-25T05:53:34;12.70;71.50
14140;DHT22;7150;53.514;9.988;2023-04-25T05:56:00;12.60;71.90
14140;DHT22;7150;53.514;9.988;2023-04-25T05:58:25;12.60;71.90
14140;DHT22;7150;53.514;9.988;2023-04-25T06:00:51;12.60;71.80
14140;DHT22;7150;53.514;9.988;2023-04-25T06:03:16;12.50;71.50
14140;DHT22;7150;53.514;9.988;2023-04-25T06:05:42;12.50;71.40
14140;DHT22;7150;53.514;9.988;2023-04-25T06:08:08;12.50;71.50
14140;DHT22;7150;53.514;9.988;2023-04-25T06:10:35;12.50;71.70
14140;DHT22;7150;53.514;9.988;2023-04-25T06:13:01;12.60;71.70
14140;DHT22;7150;53.514;9.988;2023-04-25T06:15:26;12.60;71.50
14140;DHT22;7150;53.514;9.988;2023-04-25T06:17:52;12.70;71.30
14140;DHT22;7150;53.514;9.988;2023-04-25T06:20:17;12.70;71.50
14140;DHT22;7150;53.514;9.988;2023-04-25T06:22:43;12.70;71.60
14140;DHT22;7150;53.514;9.988;2023-04-25T06:25:08;12.80;71.80
14140;DHT22;7150;53.514;9.988;2023-04-25T06:27:34;12.90;72.00
14140;DHT22;7150;53.514;9.988;2023-04-25T06:30:00;12.90;72.30
14140;DHT22;7150;53.514;9.988;2023-04-25T06:32:25;12.90;71.80
14140;DHT22;7150;53.514;9.988;2023-04-25T06:34:53;12.60;71.70
14140;DHT22;7150;53.514;9.988;2023-04-25T06:37:18;12.50;72.50
14140;DHT22;7150;53.514;9.988;2023-04-25T06:39:44;12.50;72.80
14140;DHT22;7150;53.514;9.988;2023-04-25T06:42:09;12.50;72.70
14140;DHT22;7150;53.514;9.988;2023-04-25T06:44:35;12.50;73.10
14140;DHT22;7150;53.514;9.988;2023-04-25T06:47:01;12.60;73.70
14140;DHT22;7150;53.514;9.988;2023-04-25T06:49:26;12.70;73.60
14140;DHT22;7150;53.514;9.988;2023-04-25T06:51:52;12.70;74.10
14140;DHT22;7150;53.514;9.988;2023-04-25T06:54:17;12.70;73.20
14140;DHT22;7150;53.514;9.988;2023-04-25T06:56:43;12.70;72.50
14140;DHT22;7150;53.514;9.988;2023-04-25T06:59:08;12.80;72.30
14140;DHT22;7150;53.514;9.988;2023-04-25T07:01:34;12.80;72.50
14140;DHT22;7150;53.514;9.988;2023-04-25T07:04:00;12.90;72.60
14140;DHT22;7150;53.514;9.988;2023-04-25T07:06:26;12.90;72.40
14140;DHT22;7150;53.514;9.988;2023-04-25T07:08:53;12.80;72.20
14140;DHT22;7150;53.514;9.988;2023-04-25T07:11:18;12.80;72.40
14140;DHT22;7150;53.514;9.988;2023-04-25T07:13:44;12.80;73.00
14140;DHT22;7150;53.514;9.988;2023-04-25T07:16:09;12.80;72.70
14140;DHT22;7150;53.514;9.988;2023-04-25T07:18:35;12.80;72.70
14140;DHT22;7150;53.514;9.988;2023-04-25T07:21:00;12.90;72.70
14140;DHT22;7150;53.514;9.988;2023-04-25T07:23:26;12.80;72.70
14140;DHT22;7150;53.514;9.988;2023-04-25T07:25:51;12.90;72.90
14140;DHT22;7150;53.514;9.988;2023-04-25T07:28:17;12.80;72.80
14140;DHT22;7150;53.514;9.988;2023-04-25T07:30:43;12.80;72.70
14140;DHT22;7150;53.514;9.988;2023-04-25T07:33:09;12.90;72.70
14140;DHT22;7150;53.514;9.988;2023-04-25T07:35:34;12.90;72.20
14140;DHT22;7150;53.514;9.988;2023-04-25T07:38:01;13.00;71.80
14140;DHT22;7150;53.514;9.988;2023-04-25T07:40:26;13.10;71.50
14140;DHT22;7150;53.514;9.988;2023-04-25T07:42:52;13.10;71.30
14140;DHT22;7150;53.514;9.988;2023-04-25T07:45:17;13.10;71.30
14140;DHT22;7150;53.514;9.988;2023-04-25T07:47:43;13.20;71.30
14140;DHT22;7150;53.514;9.988;2023-04-25T07:50:08;13.20;71.30
14140;DHT22;7150;53.514;9.988;2023-04-25T07:52:35;13.30;70.80
14140;DHT22;7150;53.514;9.988;2023-04-25T07:55:01;13.30;70.80
14140;DHT22;7150;53.514;9.988;2023-04-25T07:57:26;13.30;70.60
14140;DHT22;7150;53.514;9.988;2023-04-25T07:59:52;13.20;70.80
14140;DHT22;7150;53.514;9.988;2023-04-25T08:02:17;13.20;71.30
14140;DHT22;7150;53.514;9.988;2023-04-25T08:04:43;13.20;70.90
14140;DHT22;7150;53.514;9.988;2023-04-25T08:07:08;13.20;70.40
14140;DHT22;7150;53.514;9.988;2023-04-25T08:09:35;13.30;70.10
14140;DHT22;7150;53.514;9.988;2023-04-25T08:12:02;13.40;69.10
14140;DHT22;7150;53.514;9.988;2023-04-25T08:14:28;13.50;68.80
14140;DHT22;7150;53.514;9.988;2023-04-25T08:16:56;13.50;68.00
14140;DHT22;7150;53.514;9.988;2023-04-25T08:19:22;13.70;67.80
14140;DHT22;7150;53.514;9.988;2023-04-25T08:21:47;13.50;66.40
14140;DHT22;7150;53.514;9.988;2023-04-25T08:24:13;13.70;66.40
14140;DHT22;7150;53.514;9.988;2023-04-25T08:26:38;13.70;66.30
14140;DHT22;7150;53.514;9.988;2023-04-25T08:29:04;13.80;66.10
14140;DHT22;7150;53.514;9.988;2023-04-25T08:31:30;13.70;65.60
14140;DHT22;7150;53.514;9.988;2023-04-25T08:33:56;13.70;65.80
14140;DHT22;7150;53.514;9.988;2023-04-25T08:36:22;13.70;66.00
14140;DHT22;7150;53.514;9.988;2023-04-25T08:38:48;13.80;65.90
14140;DHT22;7150;53.514;9.988;2023-04-25T08:41:13;13.80;65.70
14140;DHT22;7150;53.514;9.988;2023-04-25T08:43:42;13.80;65.10
14140;DHT22;7150;53.514;9.988;2023-04-25T08:46:08;13.80;65.30
14140;DHT22;7150;53.514;9.988;2023-04-25T08:48:33;13.90;65.60
14140;DHT22;7150;53.514;9.988;2023-04-25T08:51:01;13.90;65.70
14140;DHT22;7150;53.514;9.988;2023-04-25T08:53:32;13.90;65.20
14140;DHT22;7150;53.514;9.988;2023-04-25T08:55:59;13.90;65.20
14140;DHT22;7150;53.514;9.988;2023-04-25T08:58:27;13.80;65.30
14140;DHT22;7150;53.514;9.988;2023-04-25T09:00:53;13.90;65.50
14140;DHT22;7150;53.514;9.988;2023-04-25T09:03:18;13.90;67.70
14140;DHT22;7150;53.514;9.988;2023-04-25T09:05:44;13.80;69.20
14140;DHT22;7150;53.514;9.988;2023-04-25T09:08:10;13.80;70.10
14140;DHT22;7150;53.514;9.988;2023-04-25T09:10:36;13.60;69.80
14140;DHT22;7150;53.514;9.988;2023-04-25T09:13:06;13.40;69.70
14140;DHT22;7150;53.514;9.988;2023-04-25T09:15:50;13.40;69.60
14140;DHT22;7150;53.514;9.988;2023-04-25T09:18:27;13.30;69.50
14140;DHT22;7150;53.514;9.988;2023-04-25T09:20:58;13.10;69.80
14140;DHT22;7150;53.514;9.988;2023-04-25T09:23:29;13.00;70.30
14140;DHT22;7150;53.514;9.988;2023-04-25T09:25:55;13.00;70.70
14140;DHT22;7150;53.514;9.988;2023-04-25T09:28:24;13.10;71.10
14140;DHT22;7150;53.514;9.988;2023-04-25T09:30:55;13.00;70.80
14140;DHT22;7150;53.514;9.988;2023-04-25T09:33:33;13.10;70.60
14140;DHT22;7150;53.514;9.988;2023-04-25T09:36:09;13.10;70.00
14140;DHT22;7150;53.514;9.988;2023-04-25T09:38:41;13.20;69.50
14140;DHT22;7150;53.514;9.988;2023-04-25T09:41:08;13.10;68.10
14140;DHT22;7150;53.514;9.988;2023-04-25T09:43:34;12.90;68.20
14140;DHT22;7150;53.514;9.988;2023-04-25T09:46:00;13.00;68.80
14140;DHT22;7150;53.514;9.988;2023-04-25T09:48:27;13.10;69.50
14140;DHT22;7150;53.514;9.988;2023-04-25T09:51:10;13.10;71.30
14140;DHT22;7150;53.514;9.988;2023-04-25T09:53:38;13.20;72.30
14140;DHT22;7150;53.514;9.988;2023-04-25T09:56:05;13.10;72.90
14140;DHT22;7150;53.514;9.988;2023-04-25T09:58:32;13.20;73.20
14140;DHT22;7150;53.514;9.988;2023-04-25T10:01:00;13.20;71.90
14140;DHT22;7150;53.514;9.988;2023-04-25T10:03:26;13.20;71.30
14140;DHT22;7150;53.514;9.988;2023-04-25T10:05:53;13.30;71.90
14140;DHT22;7150;53.514;9.988;2023-04-25T10:08:20;13.40;71.80
14140;DHT22;7150;53.514;9.988;2023-04-25T10:10:46;13.50;71.40
14140;DHT22;7150;53.514;9.988;2023-04-25T10:13:13;13.50;71.00
14140;DHT22;7150;53.514;9.988;2023-04-25T10:15:40;13.40;69.90
14140;DHT22;7150;53.514;9.988;2023-04-25T10:18:07;13.50;70.30
14140;DHT22;7150;53.514;9.988;2023-04-25T10:20:33;13.50;70.10
14140;DHT22;7150;53.514;9.988;2023-04-25T10:23:11;13.60;69.90
14140;DHT22;7150;53.514;9.988;2023-04-25T10:25:39;13.80;70.00
14140;DHT22;7150;53.514;9.988;2023-04-25T10:28:05;14.00;69.70
14140;DHT22;7150;53.514;9.988;2023-04-25T10:30:31;14.00;68.30
14140;DHT22;7150;53.514;9.988;2023-04-25T10:32:56;14.00;67.00
14140;DHT22;7150;53.514;9.988;2023-04-25T10:35:30;13.90;65.40
14140;DHT22;7150;53.514;9.988;2023-04-25T10:40:24;14.10;65.90
14140;DHT22;7150;53.514;9.988;2023-04-25T10:42:52;14.10;65.40
14140;DHT22;7150;53.514;9.988;2023-04-25T10:45:20;14.10;65.40
14140;DHT22;7150;53.514;9.988;2023-04-25T10:47:45;14.20;66.10
14140;DHT22;7150;53.514;9.988;2023-04-25T10:50:11;14.30;65.90
14140;DHT22;7150;53.514;9.988;2023-04-25T10:52:39;14.30;64.70
14140;DHT22;7150;53.514;9.988;2023-04-25T10:55:06;14.30;64.50
14140;DHT22;7150;53.514;9.988;2023-04-25T10:57:44;14.50;64.50
14140;DHT22;7150;53.514;9.988;2023-04-25T11:00:19;14.50;63.90
14140;DHT22;7150;53.514;9.988;2023-04-25T11:02:46;14.60;63.30
14140;DHT22;7150;53.514;9.988;2023-04-25T11:05:34;14.60;63.00
14140;DHT22;7150;53.514;9.988;2023-04-25T11:08:01;14.60;63.70
14140;DHT22;7150;53.514;9.988;2023-04-25T11:10:30;14.60;64.20
14140;DHT22;7150;53.514;9.988;2023-04-25T11:12:56;14.50;64.20
14140;DHT22;7150;53.514;9.988;2023-04-25T11:15:23;14.40;64.30
14140;DHT22;7150;53.514;9.988;2023-04-25T11:17:51;14.30;64.40
14140;DHT22;7150;53.514;9.988;2023-04-25T11:20:17;14.40;64.40
14140;DHT22;7150;53.514;9.988;2023-04-25T11:22:44;14.30;63.20
14140;DHT22;7150;53.514;9.988;2023-04-25T11:25:11;14.20;62.80
14140;DHT22;7150;53.514;9.988;2023-04-25T11:27:54;14.20;63.00
14140;DHT22;7150;53.514;9.988;2023-04-25T11:30:20;14.30;63.30
14140;DHT22;7150;53.514;9.988;2023-04-25T11:32:46;14.30;63.30
14140;DHT22;7150;53.514;9.988;2023-04-25T11:35:13;14.40;63.70
14140;DHT22;7150;53.514;9.988;2023-04-25T11:37:42;14.50;64.10
14140;DHT22;7150;53.514;9.988;2023-04-25T11:40:09;14.60;63.60
14140;DHT22;7150;53.514;9.988;2023-04-25T11:42:37;14.60;62.40
14140;DHT22;7150;53.514;9.988;2023-04-25T11:45:03;14.60;65.80
14140;DHT22;7150;53.514;9.988;2023-04-25T11:47:30;14.40;67.90
14140;DHT22;7150;53.514;9.988;2023-04-25T11:50:01;14.30;67.90
14140;DHT22;7150;53.514;9.988;2023-04-25T11:52:41;14.10;66.50
14140;DHT22;7150;53.514;9.988;2023-04-25T11:55:09;14.00;66.80
14140;DHT22;7150;53.514;9.988;2023-04-25T11:57:37;14.00;67.10
14140;DHT22;7150;53.514;9.988;2023-04-25T12:00:14;14.00;67.90
14140;DHT22;7150;53.514;9.988;2023-04-25T12:02:45;14.10;67.70
14140;DHT22;7150;53.514;9.988;2023-04-25T12:05:13;14.00;68.00
14140;DHT22;7150;53.514;9.988;2023-04-25T12:07:39;14.00;68.20
14140;DHT22;7150;53.514;9.988;2023-04-25T12:10:08;14.00;68.60
14140;DHT22;7150;53.514;9.988;2023-04-25T12:12:34;14.10;69.20
14140;DHT22;7150;53.514;9.988;2023-04-25T12:15:17;14.20;69.50
14140;DHT22;7150;53.514;9.988;2023-04-25T12:17:49;14.30;69.10
14140;DHT22;7150;53.514;9.988;2023-04-25T12:20:20;14.40;67.70
14140;DHT22;7150;53.514;9.988;2023-04-25T12:22:47;14.50;66.20
14140;DHT22;7150;53.514;9.988;2023-04-25T12:25:34;14.70;63.50
14140;DHT22;7150;53.514;9.988;2023-04-25T12:28:20;14.70;60.70
14140;DHT22;7150;53.514;9.988;2023-04-25T12:33:18;15.10;60.20
14140;DHT22;7150;53.514;9.988;2023-04-25T12:35:44;15.30;59.40
14140;DHT22;7150;53.514;9.988;2023-04-25T12:38:09;15.30;59.10
14140;DHT22;7150;53.514;9.988;2023-04-25T12:40:34;15.20;58.80
14140;DHT22;7150;53.514;9.988;2023-04-25T12:43:00;15.00;58.50
14140;DHT22;7150;53.514;9.988;2023-04-25T12:45:26;15.00;58.80
14140;DHT22;7150;53.514;9.988;2023-04-25T12:47:51;15.10;59.50
14140;DHT22;7150;53.514;9.988;2023-04-25T12:50:17;15.50;59.90
14140;DHT22;7150;53.514;9.988;2023-04-25T12:52:42;16.00;60.10
14140;DHT22;7150;53.514;9.988;2023-04-25T12:55:08;16.60;59.80
14140;DHT22;7150;53.514;9.988;2023-04-25T12:57:33;17.10;57.80
14140;DHT22;7150;53.514;9.988;2023-04-25T12:59:59;17.10;55.70
14140;DHT22;7150;53.514;9.988;2023-04-25T13:02:24;17.00;55.20
14140;DHT22;7150;53.514;9.988;2023-04-25T13:04:50;16.80;55.70
14140;DHT22;7150;53.514;9.988;2023-04-25T13:07:16;16.60;57.40
14140;DHT22;7150;53.514;9.988;2023-04-25T13:09:42;16.30;58.80
14140;DHT22;7150;53.514;9.988;2023-04-25T13:12:07;15.90;59.50
14140;DHT22;7150;53.514;9.988;2023-04-25T13:14:33;15.80;60.40
14140;DHT22;7150;53.514;9.988;2023-04-25T13:16:59;15.90;61.30
14140;DHT22;7150;53.514;9.988;2023-04-25T13:19:24;16.20;60.50
14140;DHT22;7150;53.514;9.988;2023-04-25T13:21:50;16.40;59.50
14140;DHT22;7150;53.514;9.988;2023-04-25T13:24:16;16.40;58.70
14140;DHT22;7150;53.514;9.988;2023-04-25T13:26:41;16.30;59.60
14140;DHT22;7150;53.514;9.988;2023-04-25T13:29:07;16.10;61.30
14140;DHT22;7150;53.514;9.988;2023-04-25T13:31:32;15.80;62.30
14140;DHT22;7150;53.514;9.988;2023-04-25T13:33:58;15.40;62.60
14140;DHT22;7150;53.514;9.988;2023-04-25T13:36:24;15.30;63.30
14140;DHT22;7150;53.514;9.988;2023-04-25T13:38:49;15.30;63.90
14140;DHT22;7150;53.514;9.988;2023-04-25T13:41:15;15.50;63.70
14140;DHT22;7150;53.514;9.988;2023-04-25T13:43:44;15.80;62.60
14140;DHT22;7150;53.514;9.988;2023-04-25T13:46:10;15.90;62.30
14140;DHT22;7150;53.514;9.988;2023-04-25T13:48:38;16.20;61.70
14140;DHT22;7150;53.514;9.988;2023-04-25T13:51:03;16.50;61.10
14140;DHT22;7150;53.514;9.988;2023-04-25T13:53:28;16.70;60.30
14140;DHT22;7150;53.514;9.988;2023-04-25T13:55:54;16.90;60.40
14140;DHT22;7150;53.514;9.988;2023-04-25T13:58:20;16.90;59.80
14140;DHT22;7150;53.514;9.988;2023-04-25T14:00:45;16.50;60.10
14140;DHT22;7150;53.514;9.988;2023-04-25T14:03:12;16.10;62.90
14140;DHT22;7150;53.514;9.988;2023-04-25T14:05:37;15.60;64.30
14140;DHT22;7150;53.514;9.988;2023-04-25T14:08:04;15.30;65.50
14140;DHT22;7150;53.514;9.988;2023-04-25T14:10:30;15.00;66.00
14140;DHT22;7150;53.514;9.988;2023-04-25T14:12:55;14.80;66.30
14140;DHT22;7150;53.514;9.988;2023-04-25T14:15:21;14.70;66.60
14140;DHT22;7150;53.514;9.988;2023-04-25T14:17:47;14.60;66.50
14140;DHT22;7150;53.514;9.988;2023-04-25T14:20:13;14.80;67.70
14140;DHT22;7150;53.514;9.988;2023-04-25T14:22:39;15.60;67.50
14140;DHT22;7150;53.514;9.988;2023-04-25T14:25:08;16.30;64.70
14140;DHT22;7150;53.514;9.988;2023-04-25T14:27:34;16.80;64.10
14140;DHT22;7150;53.514;9.988;2023-04-25T14:29:59;17.70;63.30
14140;DHT22;7150;53.514;9.988;2023-04-25T14:32:25;18.80;59.50
14140;DHT22;7150;53.514;9.988;2023-04-25T14:34:51;19.70;57.20
14140;DHT22;7150;53.514;9.988;2023-04-25T14:37:16;19.70;55.60
14140;DHT22;7150;53.514;9.988;2023-04-25T14:39:42;19.30;54.40
14140;DHT22;7150;53.514;9.988;2023-04-25T14:42:07;18.80;54.90
14140;DHT22;7150;53.514;9.988;2023-04-25T14:44:33;18.20;55.20
14140;DHT22;7150;53.514;9.988;2023-04-25T14:46:58;17.60;55.70
14140;DHT22;7150;53.514;9.988;2023-04-25T14:49:24;17.20;56.70
14140;DHT22;7150;53.514;9.988;2023-04-25T14:51:49;17.90;58.90
14140;DHT22;7150;53.514;9.988;2023-04-25T14:54:15;19.60;57.10
14140;DHT22;7150;53.514;9.988;2023-04-25T14:56:40;22.00;52.40
14140;DHT22;7150;53.514;9.988;2023-04-25T14:59:06;23.70;49.40
14140;DHT22;7150;53.514;9.988;2023-04-25T15:01:32;25.60;48.30
14140;DHT22;7150;53.514;9.988;2023-04-25T15:03:57;27.50;45.00
14140;DHT22;7150;53.514;9.988;2023-04-25T15:06:23;29.00;42.00
14140;DHT22;7150;53.514;9.988;2023-04-25T15:08:51;30.10;39.60
14140;DHT22;7150;53.514;9.988;2023-04-25T15:11:18;30.40;37.80
14140;DHT22;7150;53.514;9.988;2023-04-25T15:13:45;29.70;37.10
14140;DHT22;7150;53.514;9.988;2023-04-25T15:16:11;28.50;37.40
14140;DHT22;7150;53.514;9.988;2023-04-25T15:18:36;26.70;38.50
14140;DHT22;7150;53.514;9.988;2023-04-25T15:21:02;24.70;41.50
14140;DHT22;7150;53.514;9.988;2023-04-25T15:23:27;22.90;44.00
14140;DHT22;7150;53.514;9.988;2023-04-25T15:25:53;21.40;46.90
14140;DHT22;7150;53.514;9.988;2023-04-25T15:28:18;20.60;48.50
14140;DHT22;7150;53.514;9.988;2023-04-25T15:30:46;19.80;50.00
14140;DHT22;7150;53.514;9.988;2023-04-25T15:33:12;19.30;50.70
14140;DHT22;7150;53.514;9.988;2023-04-25T15:35:38;18.90;50.20
14140;DHT22;7150;53.514;9.988;2023-04-25T15:38:04;18.70;51.40
14140;DHT22;7150;53.514;9.988;2023-04-25T15:40:30;18.40;51.70
14140;DHT22;7150;53.514;9.988;2023-04-25T15:42:55;18.20;51.80
14140;DHT22;7150;53.514;9.988;2023-04-25T15:45:23;17.90;51.80